Time;durP1;ratioP1;P1;durP2;ratioP2;P2;SDS_P1;SDS_P2;PMS_P1;PMS_P2;Temp;Humidity;BMP_temperature;BMP_pressure;BME280_temperature;BME280_humidity;BME280_pressure;Samples;Min_cycle;Max_cycle;Signal;HPM_P1;HPM_P2
2023/07/22 00:00:15;;;;;;;;;4.00;4.00;;;;;;;;5092881;27;45519;-79
2023/07/22 00:02:40;;;;;;;;;5.00;4.00;;;;;;;;5092430;27;46911;-77
2023/07/22 00:05:06;;;;;;;;;5.00;4.67;;;;;;;;5096763;27;45439;-77
2023/07/22 00:07:31;;;;;;;;;4.00;4.00;;;;;;;;5093797;27;45512;-78
2023/07/22 00:09:57;;;;;;;;;5.33;5.33;;;;;;;;5098932;27;45537;-78
2023/07/22 00:12:25;;;;;;;;;7.00;5.67;;;;;;;;5093223;27;47509;-79
2023/07/22 00:14:51;;;;;;;;;3.00;3.00;;;;;;;;5083104;27;45487;-78
2023/07/22 00:17:16;;;;;;;;;5.00;5.00;;;;;;;;5098809;27;45463;-78
2023/07/22 00:19:41;;;;;;;;;4.67;4.67;;;;;;;;5087564;27;45461;-76
2023/07/22 00:22:07;;;;;;;;;5.00;5.00;;;;;;;;5094546;27;46474;-79
2023/07/22 00:24:54;;;;;;;;;5.00;4.67;;;;;;;;5094599;27;45451;-78
2023/07/22 00:27:19;;;;;;;;;4.00;4.00;;;;;;;;5091177;27;45617;-77
2023/07/22 00:29:44;;;;;;;;;4.00;4.00;;;;;;;;5082984;27;45515;-79
2023/07/22 00:32:10;;;;;;;;;4.00;4.00;;;;;;;;5083021;27;45365;-76
2023/07/22 00:34:36;;;;;;;;;4.00;3.67;;;;;;;;5097286;27;45332;-76
2023/07/22 00:37:01;;;;;;;;;7.67;5.33;;;;;;;;5092674;27;45375;-79
2023/07/22 00:39:27;;;;;;;;;4.67;4.67;;;;;;;;5089078;27;46038;-79
2023/07/22 00:41:52;;;;;;;;;4.00;4.00;;;;;;;;5098384;27;45638;-77
2023/07/22 00:44:18;;;;;;;;;4.67;4.67;;;;;;;;5101230;27;45479;-78
2023/07/22 00:46:43;;;;;;;;;6.67;6.33;;;;;;;;5097886;27;45390;-78
2023/07/22 00:49:09;;;;;;;;;5.00;5.00;;;;;;;;5083058;27;45515;-78
2023/07/22 00:51:34;;;;;;;;;5.00;4.67;;;;;;;;5093743;27;45874;-78
2023/07/22 00:54:00;;;;;;;;;5.67;4.00;;;;;;;;5087145;27;45456;-78
2023/07/22 00:56:25;;;;;;;;;4.00;3.67;;;;;;;;5094118;27;45486;-78
2023/07/22 00:58:51;;;;;;;;;4.00;4.00;;;;;;;;5089560;27;45360;-78
2023/07/22 01:01:17;;;;;;;;;4.00;3.00;;;;;;;;5094579;27;48114;-78
2023/07/22 01:03:42;;;;;;;;;5.00;5.00;;;;;;;;5083406;27;45302;-79
2023/07/22 01:06:09;;;;;;;;;5.00;4.33;;;;;;;;5090774;27;45381;-79
2023/07/22 01:08:34;;;;;;;;;4.67;4.00;;;;;;;;5078920;27;45517;-78
2023/07/22 01:11:00;;;;;;;;;5.00;5.00;;;;;;;;5078552;27;45955;-76
2023/07/22 01:13:25;;;;;;;;;5.00;4.00;;;;;;;;5079356;27;45225;-78
2023/07/22 01:15:50;;;;;;;;;4.00;4.00;;;;;;;;5082157;27;45638;-78
2023/07/22 01:18:16;;;;;;;;;4.00;4.00;;;;;;;;5094827;27;45366;-78
2023/07/22 01:20:42;;;;;;;;;6.00;5.00;;;;;;;;5090287;27;45361;-79
2023/07/22 01:23:07;;;;;;;;;4.00;4.00;;;;;;;;5083494;27;45506;-79
2023/07/22 01:25:33;;;;;;;;;4.00;4.00;;;;;;;;5078707;27;45457;-79
2023/07/22 01:27:58;;;;;;;;;4.00;4.00;;;;;;;;5086015;27;45433;-79
2023/07/22 01:30:25;;;;;;;;;4.00;4.00;;;;;;;;5094477;27;45935;-78
2023/07/22 01:32:50;;;;;;;;;4.00;4.00;;;;;;;;5082713;27;45451;-79
2023/07/22 01:35:16;;;;;;;;;5.00;4.00;;;;;;;;5077140;27;45936;-79
2023/07/22 01:37:42;;;;;;;;;4.00;4.00;;;;;;;;5083726;27;45448;-80
2023/07/22 01:40:13;;;;;;;;;4.67;4.00;;;;;;;;5096157;27;46100;-79
2023/07/22 01:42:39;;;;;;;;;4.33;4.00;;;;;;;;5078290;27;45631;-78
2023/07/22 01:45:07;;;;;;;;;7.33;4.00;;;;;;;;5078793;27;46076;-79
2023/07/22 01:47:33;;;;;;;;;4.00;4.00;;;;;;;;5082485;27;46257;-79
2023/07/22 01:49:58;;;;;;;;;4.00;4.00;;;;;;;;5097224;27;47632;-79
2023/07/22 01:52:24;;;;;;;;;4.67;4.33;;;;;;;;5081567;27;45305;-79
2023/07/22 01:54:49;;;;;;;;;6.00;5.00;;;;;;;;5099197;27;45233;-79
2023/07/22 01:57:14;;;;;;;;;4.33;4.33;;;;;;;;5079967;27;45354;-79
2023/07/22 01:59:40;;;;;;;;;5.00;5.00;;;;;;;;5078137;27;46174;-79
2023/07/22 02:02:05;;;;;;;;;4.00;4.00;;;;;;;;5078212;27;45294;-79
2023/07/22 02:04:31;;;;;;;;;5.67;4.67;;;;;;;;5092260;27;45264;-76
2023/07/22 02:06:56;;;;;;;;;5.33;5.00;;;;;;;;5080767;27;45222;-79
2023/07/22 02:09:21;;;;;;;;;5.33;5.33;;;;;;;;5081793;27;46004;-79
2023/07/22 02:11:47;;;;;;;;;5.00;5.00;;;;;;;;5097457;27;45448;-78
2023/07/22 02:14:12;;;;;;;;;5.00;4.67;;;;;;;;5085389;27;45364;-79
2023/07/22 02:16:38;;;;;;;;;4.00;4.00;;;;;;;;5093387;27;45246;-78
2023/07/22 02:19:04;;;;;;;;;5.00;5.00;;;;;;;;5093434;27;45415;-78
2023/07/22 02:21:29;;;;;;;;;5.33;5.33;;;;;;;;5085885;27;45479;-79
2023/07/22 02:23:55;;;;;;;;;4.67;4.67;;;;;;;;5085236;27;45429;-79
2023/07/22 02:26:20;;;;;;;;;6.00;6.00;;;;;;;;5093582;27;45269;-79
2023/07/22 02:28:46;;;;;;;;;5.00;4.33;;;;;;;;5077771;27;46053;-78
2023/07/22 02:31:12;;;;;;;;;4.00;4.00;;;;;;;;5085317;27;45516;-76
2023/07/22 02:33:37;;;;;;;;;7.67;5.33;;;;;;;;5086126;27;45415;-78
2023/07/22 02:36:03;;;;;;;;;5.00;4.67;;;;;;;;5078173;27;45676;-76
2023/07/22 02:38:28;;;;;;;;;5.33;5.33;;;;;;;;5093407;27;46241;-77
2023/07/22 02:40:54;;;;;;;;;4.00;4.00;;;;;;;;5084760;27;45544;-79
2023/07/22 02:43:19;;;;;;;;;5.33;5.33;;;;;;;;5086792;27;45335;-75
2023/07/22 02:45:44;;;;;;;;;4.00;4.00;;;;;;;;5077538;27;45463;-78
2023/07/22 02:48:10;;;;;;;;;4.00;4.00;;;;;;;;5095325;27;45466;-77
2023/07/22 02:50:36;;;;;;;;;6.00;5.00;;;;;;;;5082865;27;45450;-78
2023/07/22 02:53:02;;;;;;;;;5.00;4.33;;;;;;;;5079272;27;46013;-79
2023/07/22 02:55:28;;;;;;;;;5.33;4.67;;;;;;;;5097167;27;45364;-79
2023/07/22 02:57:53;;;;;;;;;6.00;5.33;;;;;;;;5097025;27;46591;-77
2023/07/22 03:00:23;;;;;;;;;6.00;5.00;;;;;;;;5097387;27;45377;-78
2023/07/22 03:02:49;;;;;;;;;7.00;6.00;;;;;;;;5080257;27;45306;-76
2023/07/22 03:05:15;;;;;;;;;3.00;2.67;;;;;;;;5082202;27;45448;-78
2023/07/22 03:07:40;;;;;;;;;4.00;4.00;;;;;;;;5092474;27;46551;-78
2023/07/22 03:10:06;;;;;;;;;4.33;3.67;;;;;;;;5077356;27;45500;-77
2023/07/22 03:12:32;;;;;;;;;6.33;5.00;;;;;;;;5080178;27;45333;-78
2023/07/22 03:14:57;;;;;;;;;4.00;4.00;;;;;;;;5098225;27;45507;-79
2023/07/22 03:17:22;;;;;;;;;5.00;5.00;;;;;;;;5091790;27;45599;-77
2023/07/22 03:19:48;;;;;;;;;6.00;4.00;;;;;;;;5083246;27;45499;-75
2023/07/22 03:22:14;;;;;;;;;5.00;4.00;;;;;;;;5086930;27;45453;-78
2023/07/22 03:24:39;;;;;;;;;6.00;5.33;;;;;;;;5091343;27;45535;-78
2023/07/22 03:27:06;;;;;;;;;6.00;6.00;;;;;;;;5087857;27;45400;-77
2023/07/22 03:29:31;;;;;;;;;5.67;4.67;;;;;;;;5082547;27;45495;-77
2023/07/22 03:31:57;;;;;;;;;5.00;5.00;;;;;;;;5096567;27;45376;-78
2023/07/22 03:34:22;;;;;;;;;6.00;6.00;;;;;;;;5093245;27;45289;-77
2023/07/22 03:36:48;;;;;;;;;5.00;5.00;;;;;;;;5085459;27;45393;-78
2023/07/22 03:39:14;;;;;;;;;5.00;5.00;;;;;;;;5097903;27;45297;-77
2023/07/22 03:41:39;;;;;;;;;4.00;4.00;;;;;;;;5081168;27;45479;-78
2023/07/22 03:44:04;;;;;;;;;6.00;5.00;;;;;;;;5080500;27;45519;-76
2023/07/22 03:46:30;;;;;;;;;6.00;6.00;;;;;;;;5097792;27;46071;-77
2023/07/22 03:48:55;;;;;;;;;6.33;6.33;;;;;;;;5095036;27;45283;-77
2023/07/22 03:51:21;;;;;;;;;6.00;6.00;;;;;;;;5077515;27;45470;-77
2023/07/22 03:53:46;;;;;;;;;7.67;7.33;;;;;;;;5078095;27;45230;-75
2023/07/22 03:56:12;;;;;;;;;7.00;6.67;;;;;;;;5097754;27;46055;-79
2023/07/22 03:58:37;;;;;;;;;5.67;5.00;;;;;;;;5096816;27;45417;-76
2023/07/22 04:01:02;;;;;;;;;6.00;6.00;;;;;;;;5077545;27;45564;-78
2023/07/22 04:03:28;;;;;;;;;6.00;5.67;;;;;;;;5077298;27;45507;-78
2023/07/22 04:05:54;;;;;;;;;8.00;6.33;;;;;;;;5086939;27;47552;-78
2023/07/22 04:08:19;;;;;;;;;6.00;6.00;;;;;;;;5097617;27;45391;-78
2023/07/22 04:10:54;;;;;;;;;6.00;6.00;;;;;;;;5093764;27;45302;-78
2023/07/22 04:13:20;;;;;;;;;6.00;6.00;;;;;;;;5073778;28;45537;-78
2023/07/22 04:15:47;;;;;;;;;5.67;5.67;;;;;;;;5076808;27;46554;-77
2023/07/22 04:18:12;;;;;;;;;6.67;6.33;;;;;;;;5092539;27;45532;-78
2023/07/22 04:20:37;;;;;;;;;7.67;7.67;;;;;;;;5097784;27;45496;-77
2023/07/22 04:23:03;;;;;;;;;5.00;5.00;;;;;;;;5098214;27;45317;-77
2023/07/22 04:25:28;;;;;;;;;6.00;6.00;;;;;;;;5079562;27;45472;-76
2023/07/22 04:27:53;;;;;;;;;5.33;4.67;;;;;;;;5078734;27;45381;-75
2023/07/22 04:30:20;;;;;;;;;6.67;6.33;;;;;;;;5078991;27;45282;-79
2023/07/22 04:32:51;;;;;;;;;7.00;6.00;;;;;;;;5080491;27;45428;-78
2023/07/22 04:35:21;;;;;;;;;4.33;4.33;;;;;;;;5083864;28;46063;-79
2023/07/22 04:37:47;;;;;;;;;4.33;4.33;;;;;;;;5083090;27;45179;-79
2023/07/22 04:40:16;;;;;;;;;4.67;4.67;;;;;;;;5081469;28;45257;-78
2023/07/22 04:42:46;;;;;;;;;4.67;4.67;;;;;;;;5081554;27;45570;-79
2023/07/22 04:45:13;;;;;;;;;6.33;5.00;;;;;;;;5080603;27;46131;-76
2023/07/22 04:47:39;;;;;;;;;7.67;6.33;;;;;;;;5080380;28;45959;-79
2023/07/22 04:50:09;;;;;;;;;4.67;4.67;;;;;;;;5081638;28;45354;-79
2023/07/22 04:52:37;;;;;;;;;6.00;5.33;;;;;;;;5080576;28;45482;-79
2023/07/22 04:55:09;;;;;;;;;5.33;4.33;;;;;;;;5097598;27;46165;-78
2023/07/22 04:57:41;;;;;;;;;6.00;5.00;;;;;;;;5099497;27;45380;-80
2023/07/22 05:00:09;;;;;;;;;5.00;4.00;;;;;;;;5101623;27;45739;-77
2023/07/22 05:02:35;;;;;;;;;5.33;5.00;;;;;;;;5080543;28;45256;-79
2023/07/22 05:05:00;;;;;;;;;5.00;5.00;;;;;;;;5079803;28;45291;-79
2023/07/22 05:07:26;;;;;;;;;4.00;4.00;;;;;;;;5078676;28;45277;-78
2023/07/22 05:09:51;;;;;;;;;5.67;5.67;;;;;;;;5094596;27;45250;-78
2023/07/22 05:12:17;;;;;;;;;5.00;4.67;;;;;;;;5100552;27;45455;-79
2023/07/22 05:14:42;;;;;;;;;5.00;5.00;;;;;;;;5100145;27;45981;-79
2023/07/22 05:17:08;;;;;;;;;4.67;4.00;;;;;;;;5089803;27;45657;-79
2023/07/22 05:19:33;;;;;;;;;4.33;4.00;;;;;;;;5079871;27;45262;-79
2023/07/22 05:21:58;;;;;;;;;5.33;5.00;;;;;;;;5080034;27;45244;-79
2023/07/22 05:24:24;;;;;;;;;5.33;4.33;;;;;;;;5085875;27;47508;-77
2023/07/22 05:26:49;;;;;;;;;6.33;5.00;;;;;;;;5091879;27;45483;-78
2023/07/22 05:29:14;;;;;;;;;7.00;5.00;;;;;;;;5088482;27;45431;-79
2023/07/22 05:31:40;;;;;;;;;5.67;5.00;;;;;;;;5080920;27;45314;-77
2023/07/22 05:34:05;;;;;;;;;7.33;5.33;;;;;;;;5089697;27;46445;-75
2023/07/22 05:36:30;;;;;;;;;5.00;5.00;;;;;;;;5090889;27;45430;-78
2023/07/22 05:38:57;;;;;;;;;4.33;4.33;;;;;;;;5080527;27;45409;-78
2023/07/22 05:41:23;;;;;;;;;7.00;4.33;;;;;;;;5094392;27;45456;-80
2023/07/22 05:43:48;;;;;;;;;5.33;5.33;;;;;;;;5079528;27;45939;-80
2023/07/22 05:46:13;;;;;;;;;5.00;5.00;;;;;;;;5078335;27;45519;-77
2023/07/22 05:48:39;;;;;;;;;4.67;4.33;;;;;;;;5077707;27;45410;-79
2023/07/22 05:51:04;;;;;;;;;3.67;3.67;;;;;;;;5079300;27;45433;-81
2023/07/22 05:53:30;;;;;;;;;4.33;4.33;;;;;;;;5078921;28;46146;-78
2023/07/22 05:55:55;;;;;;;;;3.00;3.00;;;;;;;;5089753;27;45468;-80
2023/07/22 05:58:20;;;;;;;;;7.67;5.00;;;;;;;;5083081;27;45322;-79
2023/07/22 06:00:48;;;;;;;;;6.00;5.00;;;;;;;;5093833;27;45522;-80
2023/07/22 06:03:14;;;;;;;;;3.33;3.33;;;;;;;;5085741;27;46712;-80
2023/07/22 06:05:39;;;;;;;;;4.33;3.67;;;;;;;;5089259;27;45348;-78
2023/07/22 06:08:05;;;;;;;;;4.00;4.00;;;;;;;;5092364;27;45482;-81
2023/07/22 06:10:31;;;;;;;;;4.33;4.00;;;;;;;;5079121;27;45480;-79
2023/07/22 06:12:58;;;;;;;;;4.67;3.67;;;;;;;;5078130;27;45484;-81
2023/07/22 06:15:23;;;;;;;;;7.00;7.00;;;;;;;;5092407;27;45741;-76
2023/07/22 06:17:48;;;;;;;;;4.33;4.33;;;;;;;;5078549;27;45400;-77
2023/07/22 06:20:14;;;;;;;;;2.33;2.33;;;;;;;;5078962;27;45491;-80
2023/07/22 06:22:39;;;;;;;;;3.00;3.00;;;;;;;;5077691;27;45525;-79
2023/07/22 06:25:06;;;;;;;;;5.00;5.00;;;;;;;;5085909;27;45376;-78
2023/07/22 06:27:31;;;;;;;;;5.00;5.00;;;;;;;;5084391;27;45532;-79
2023/07/22 06:29:58;;;;;;;;;5.00;4.00;;;;;;;;5093680;27;45363;-77
2023/07/22 06:32:23;;;;;;;;;5.00;4.00;;;;;;;;5091215;27;46207;-78
2023/07/22 06:34:49;;;;;;;;;4.67;4.67;;;;;;;;5077493;27;45218;-81
2023/07/22 06:37:14;;;;;;;;;7.00;4.67;;;;;;;;5080663;27;45418;-81
2023/07/22 06:39:39;;;;;;;;;3.33;3.33;;;;;;;;5097340;27;45561;-81
2023/07/22 06:42:05;;;;;;;;;4.67;4.00;;;;;;;;5097913;27;45492;-80
2023/07/22 06:44:30;;;;;;;;;4.67;4.00;;;;;;;;5082702;27;45366;-81
2023/07/22 06:46:56;;;;;;;;;8.00;6.00;;;;;;;;5077678;27;45674;-81
2023/07/22 06:49:22;;;;;;;;;5.00;5.00;;;;;;;;5078057;27;45469;-79
2023/07/22 06:51:47;;;;;;;;;7.00;6.00;;;;;;;;5078112;27;46167;-77
2023/07/22 06:54:12;;;;;;;;;6.33;5.67;;;;;;;;5092217;27;45448;-78
2023/07/22 06:56:38;;;;;;;;;6.00;6.00;;;;;;;;5076557;27;45846;-80
2023/07/22 06:59:03;;;;;;;;;6.33;6.33;;;;;;;;5077177;27;45417;-80
2023/07/22 07:01:28;;;;;;;;;7.00;6.00;;;;;;;;5077151;27;45641;-79
2023/07/22 07:03:54;;;;;;;;;5.00;4.67;;;;;;;;5080431;27;45377;-80
2023/07/22 07:06:20;;;;;;;;;9.33;7.00;;;;;;;;5101255;27;45476;-81
2023/07/22 07:08:45;;;;;;;;;5.67;5.67;;;;;;;;5105203;27;45529;-79
2023/07/22 07:11:11;;;;;;;;;7.33;7.00;;;;;;;;5106758;27;45420;-77
2023/07/22 07:13:37;;;;;;;;;7.00;6.00;;;;;;;;5081972;27;45506;-78
2023/07/22 07:16:22;;;;;;;;;5.67;5.67;;;;;;;;5090416;27;45817;-79
2023/07/22 07:18:48;;;;;;;;;5.00;5.00;;;;;;;;5095315;27;45730;-78
2023/07/22 07:21:13;;;;;;;;;5.00;5.00;;;;;;;;5093315;27;46244;-79
2023/07/22 07:23:38;;;;;;;;;4.67;4.67;;;;;;;;5094975;27;45568;-79
2023/07/22 07:26:04;;;;;;;;;5.33;5.33;;;;;;;;5094773;27;45556;-81
2023/07/22 07:28:29;;;;;;;;;5.33;5.33;;;;;;;;5093227;27;45535;-81
2023/07/22 07:30:54;;;;;;;;;5.00;5.00;;;;;;;;5092557;27;46491;-79
2023/07/22 07:33:20;;;;;;;;;6.00;5.00;;;;;;;;5093520;27;45406;-78
2023/07/22 07:35:48;;;;;;;;;5.67;5.00;;;;;;;;5096180;27;45418;-77
2023/07/22 07:38:15;;;;;;;;;5.67;5.00;;;;;;;;5096353;27;45531;-78
2023/07/22 07:40:40;;;;;;;;;6.00;6.00;;;;;;;;5097310;27;45527;-79
2023/07/22 07:43:06;;;;;;;;;5.33;5.33;;;;;;;;5100507;27;45500;-78
2023/07/22 07:45:31;;;;;;;;;5.00;4.33;;;;;;;;5093085;27;45460;-81
2023/07/22 07:47:56;;;;;;;;;5.00;5.00;;;;;;;;5093513;27;45386;-76
2023/07/22 07:50:22;;;;;;;;;4.67;4.67;;;;;;;;5093500;27;45393;-78
2023/07/22 07:52:47;;;;;;;;;7.00;5.00;;;;;;;;5096007;27;45371;-77
2023/07/22 07:55:13;;;;;;;;;5.00;5.00;;;;;;;;5096750;27;45456;-77
2023/07/22 07:57:41;;;;;;;;;4.67;4.67;;;;;;;;5096542;27;45470;-78
2023/07/22 08:00:08;;;;;;;;;7.00;5.00;;;;;;;;5095984;27;45565;-77
2023/07/22 08:02:34;;;;;;;;;5.00;5.00;;;;;;;;5096731;27;45427;-74
2023/07/22 08:05:00;;;;;;;;;5.00;4.33;;;;;;;;5096745;27;45434;-75
2023/07/22 08:07:25;;;;;;;;;4.00;4.00;;;;;;;;5097946;27;45469;-77
2023/07/22 08:09:52;;;;;;;;;6.00;5.00;;;;;;;;5100407;27;46121;-74
2023/07/22 08:12:18;;;;;;;;;4.00;3.67;;;;;;;;5100749;27;45459;-74
2023/07/22 08:14:44;;;;;;;;;4.33;4.33;;;;;;;;5100178;27;45508;-73
2023/07/22 08:17:09;;;;;;;;;4.00;4.00;;;;;;;;5099077;27;45744;-75
2023/07/22 08:19:35;;;;;;;;;3.33;3.33;;;;;;;;5099747;27;46112;-77
2023/07/22 08:22:00;;;;;;;;;4.00;4.00;;;;;;;;5099844;27;45569;-74
2023/07/22 08:24:25;;;;;;;;;3.00;3.00;;;;;;;;5100287;27;45655;-74
2023/07/22 08:26:51;;;;;;;;;2.00;2.00;;;;;;;;5100226;27;45325;-73
2023/07/22 08:29:16;;;;;;;;;2.00;2.00;;;;;;;;5099975;27;45895;-73
2023/07/22 08:31:42;;;;;;;;;4.00;4.00;;;;;;;;5099857;27;45602;-73
2023/07/22 08:34:07;;;;;;;;;3.33;3.00;;;;;;;;5099960;27;45555;-76
2023/07/22 08:36:32;;;;;;;;;3.00;3.00;;;;;;;;5098855;27;45599;-75
2023/07/22 08:38:58;;;;;;;;;3.67;3.67;;;;;;;;5099945;27;46090;-76
2023/07/22 08:41:25;;;;;;;;;6.00;6.00;;;;;;;;5099654;27;46248;-74
2023/07/22 08:43:50;;;;;;;;;5.00;5.00;;;;;;;;5099885;27;45492;-74
2023/07/22 08:46:17;;;;;;;;;3.00;2.67;;;;;;;;5100213;27;45466;-78
2023/07/22 08:48:46;;;;;;;;;4.67;4.00;;;;;;;;5100038;27;45509;-75
2023/07/22 08:51:18;;;;;;;;;4.33;4.00;;;;;;;;5100301;27;45349;-74
2023/07/22 08:53:44;;;;;;;;;4.67;4.67;;;;;;;;5100522;27;45911;-74
2023/07/22 08:56:10;;;;;;;;;4.67;4.00;;;;;;;;5100106;27;45336;-71
2023/07/22 08:58:36;;;;;;;;;2.33;2.33;;;;;;;;5100382;27;46274;-74
2023/07/22 09:01:02;;;;;;;;;4.00;4.00;;;;;;;;5099297;27;45482;-74
2023/07/22 09:03:27;;;;;;;;;2.33;2.33;;;;;;;;5099340;27;45456;-75
2023/07/22 09:05:53;;;;;;;;;3.00;2.33;;;;;;;;5099788;27;45350;-75
2023/07/22 09:08:18;;;;;;;;;4.67;4.33;;;;;;;;5106896;27;45522;-75
2023/07/22 09:10:44;;;;;;;;;5.00;5.00;;;;;;;;5115709;27;45528;-75
2023/07/22 09:13:10;;;;;;;;;3.67;3.33;;;;;;;;5099663;27;45376;-79
2023/07/22 09:15:36;;;;;;;;;3.67;3.67;;;;;;;;5099779;27;45483;-75
2023/07/22 09:18:03;;;;;;;;;2.33;2.33;;;;;;;;5098391;27;46214;-78
2023/07/22 09:20:29;;;;;;;;;2.00;2.00;;;;;;;;5097693;27;45554;-75
2023/07/22 09:22:55;;;;;;;;;2.67;2.00;;;;;;;;5098708;27;45556;-73
2023/07/22 09:25:21;;;;;;;;;3.67;3.00;;;;;;;;5099211;27;45522;-81
2023/07/22 09:27:47;;;;;;;;;2.00;2.00;;;;;;;;5098631;27;45509;-73
2023/07/22 09:30:32;;;;;;;;;2.00;2.00;;;;;;;;5098685;27;45393;-75
2023/07/22 09:32:58;;;;;;;;;2.67;2.67;;;;;;;;5095573;27;45506;-75
2023/07/22 09:35:28;;;;;;;;;1.33;1.33;;;;;;;;5099187;27;45349;-76
2023/07/22 09:37:54;;;;;;;;;2.67;2.67;;;;;;;;5099253;27;45390;-75
2023/07/22 09:40:19;;;;;;;;;2.33;2.33;;;;;;;;5099008;27;45495;-75
2023/07/22 09:42:49;;;;;;;;;1.67;1.67;;;;;;;;5099677;27;45513;-75
2023/07/22 09:45:16;;;;;;;;;1.00;1.00;;;;;;;;5098183;27;45590;-76
2023/07/22 09:47:45;;;;;;;;;5.33;5.00;;;;;;;;5098828;27;45313;-76
2023/07/22 09:50:18;;;;;;;;;4.00;3.00;;;;;;;;5098745;27;45405;-76
2023/07/22 09:52:50;;;;;;;;;2.33;2.33;;;;;;;;5099301;27;45467;-75
2023/07/22 09:55:20;;;;;;;;;2.67;2.67;;;;;;;;5099373;27;45486;-74
2023/07/22 09:57:55;;;;;;;;;0.00;0.00;;;;;;;;5098846;27;45439;-75
2023/07/22 10:00:23;;;;;;;;;3.33;2.67;;;;;;;;5098961;27;45383;-76
2023/07/22 10:02:51;;;;;;;;;2.33;2.33;;;;;;;;5098645;27;45480;-75
2023/07/22 10:05:18;;;;;;;;;2.67;2.33;;;;;;;;5099311;27;45370;-75
2023/07/22 10:07:47;;;;;;;;;4.33;4.33;;;;;;;;5098723;27;46148;-76
2023/07/22 10:10:14;;;;;;;;;3.00;3.00;;;;;;;;5098973;27;45377;-76
2023/07/22 10:12:41;;;;;;;;;4.00;4.00;;;;;;;;5098642;27;45546;-75
2023/07/22 10:15:07;;;;;;;;;4.00;4.00;;;;;;;;5098938;27;45527;-76
2023/07/22 10:17:33;;;;;;;;;3.33;3.33;;;;;;;;5098564;27;45475;-76
2023/07/22 10:19:59;;;;;;;;;5.00;5.00;;;;;;;;5097431;27;45297;-75
2023/07/22 10:22:24;;;;;;;;;4.33;4.33;;;;;;;;5098944;27;45323;-75
2023/07/22 10:24:49;;;;;;;;;3.00;3.00;;;;;;;;5098919;27;45455;-75
2023/07/22 10:27:16;;;;;;;;;3.67;3.67;;;;;;;;5098471;27;45508;-75
2023/07/22 10:29:43;;;;;;;;;3.33;3.33;;;;;;;;5098783;27;45538;-75
2023/07/22 10:32:09;;;;;;;;;4.33;4.33;;;;;;;;5097467;27;45541;-74
2023/07/22 10:34:34;;;;;;;;;5.00;4.00;;;;;;;;5098440;27;45377;-75
2023/07/22 10:36:59;;;;;;;;;3.67;3.67;;;;;;;;5098394;27;45277;-76
2023/07/22 10:39:28;;;;;;;;;3.67;3.67;;;;;;;;5098528;27;45341;-75
2023/07/22 10:42:01;;;;;;;;;3.67;3.67;;;;;;;;5096875;27;45447;-75
2023/07/22 10:44:26;;;;;;;;;4.67;4.67;;;;;;;;5098852;27;45495;-75
2023/07/22 10:46:59;;;;;;;;;4.00;3.33;;;;;;;;5097988;27;46556;-76
2023/07/22 10:49:27;;;;;;;;;5.33;5.33;;;;;;;;5098444;27;45375;-76
2023/07/22 10:51:53;;;;;;;;;5.00;5.00;;;;;;;;5096929;27;45205;-76
2023/07/22 10:54:35;;;;;;;;;5.33;4.00;;;;;;;;5098520;27;45261;-76
2023/07/22 10:57:05;;;;;;;;;14.00;13.67;;;;;;;;5099207;27;46278;-76
2023/07/22 10:59:35;;;;;;;;;4.67;4.67;;;;;;;;5097606;27;45467;-76
2023/07/22 11:02:01;;;;;;;;;2.67;2.67;;;;;;;;5098665;27;45452;-76
2023/07/22 11:04:32;;;;;;;;;4.33;4.33;;;;;;;;5098712;27;45316;-76
2023/07/22 11:06:59;;;;;;;;;5.33;4.67;;;;;;;;5098329;27;45311;-76
2023/07/22 11:09:27;;;;;;;;;5.67;5.67;;;;;;;;5098111;27;45545;-76
2023/07/22 11:11:53;;;;;;;;;5.33;5.33;;;;;;;;5098072;27;45502;-76
2023/07/22 11:14:22;;;;;;;;;6.00;4.33;;;;;;;;5096913;27;45454;-76
2023/07/22 11:16:48;;;;;;;;;6.00;6.00;;;;;;;;5097572;27;46265;-76
2023/07/22 11:19:14;;;;;;;;;6.00;5.00;;;;;;;;5097510;27;45839;-76
2023/07/22 11:21:40;;;;;;;;;6.00;6.00;;;;;;;;5096781;27;45342;-76
2023/07/22 11:24:07;;;;;;;;;5.33;4.33;;;;;;;;5096769;27;45231;-76
2023/07/22 11:26:32;;;;;;;;;4.33;4.33;;;;;;;;5097890;27;46235;-75
2023/07/22 11:28:59;;;;;;;;;4.33;3.33;;;;;;;;5097762;27;45591;-76
2023/07/22 11:31:34;;;;;;;;;4.67;4.67;;;;;;;;5097505;27;45488;-76
2023/07/22 11:34:00;;;;;;;;;6.67;5.67;;;;;;;;5098012;27;45436;-76
2023/07/22 11:36:27;;;;;;;;;5.67;4.67;;;;;;;;5097707;27;45351;-76
2023/07/22 11:38:54;;;;;;;;;4.67;4.67;;;;;;;;5097680;27;45420;-76
2023/07/22 11:41:20;;;;;;;;;3.00;3.00;;;;;;;;5097813;27;45476;-76
2023/07/22 11:43:45;;;;;;;;;3.67;3.67;;;;;;;;5096835;27;45294;-76
2023/07/22 11:46:10;;;;;;;;;4.00;3.67;;;;;;;;5079081;27;46204;-76
2023/07/22 11:48:36;;;;;;;;;5.67;5.00;;;;;;;;5097483;27;45515;-76
2023/07/22 11:51:01;;;;;;;;;5.00;5.00;;;;;;;;5098066;27;45264;-75
2023/07/22 11:53:29;;;;;;;;;4.67;4.67;;;;;;;;5097974;27;45456;-75
2023/07/22 11:55:58;;;;;;;;;5.00;4.00;;;;;;;;5097792;27;46190;-76
2023/07/22 11:58:26;;;;;;;;;5.00;4.00;;;;;;;;5097465;27;45352;-75
2023/07/22 12:01:04;;;;;;;;;5.67;5.67;;;;;;;;5097257;27;45441;-76
2023/07/22 12:03:33;;;;;;;;;6.00;5.33;;;;;;;;5098069;27;45466;-76
2023/07/22 12:06:06;;;;;;;;;6.33;6.33;;;;;;;;5096870;27;46141;-76
2023/07/22 12:08:32;;;;;;;;;5.00;4.67;;;;;;;;5062015;27;45535;-76
2023/07/22 12:10:58;;;;;;;;;5.00;4.00;;;;;;;;5096892;27;45239;-76
2023/07/22 12:13:24;;;;;;;;;5.33;5.33;;;;;;;;5097308;27;45380;-76
2023/07/22 12:16:02;;;;;;;;;4.00;4.00;;;;;;;;5096983;27;45495;-76
2023/07/22 12:18:28;;;;;;;;;6.67;6.33;;;;;;;;5097194;27;45230;-76
2023/07/22 12:20:53;;;;;;;;;8.00;7.00;;;;;;;;5096811;27;45491;-76
2023/07/22 12:23:18;;;;;;;;;4.33;4.33;;;;;;;;5097327;27;45484;-76
2023/07/22 12:25:44;;;;;;;;;4.67;4.33;;;;;;;;5097171;27;45514;-76
2023/07/22 12:28:10;;;;;;;;;4.00;4.00;;;;;;;;5097005;27;45293;-76
2023/07/22 12:30:36;;;;;;;;;5.33;5.00;;;;;;;;5097164;27;45484;-76
2023/07/22 12:33:02;;;;;;;;;2.00;1.33;;;;;;;;5097567;27;45390;-76
2023/07/22 12:35:27;;;;;;;;;4.67;4.67;;;;;;;;5096737;27;45279;-76
2023/07/22 12:37:53;;;;;;;;;4.33;4.00;;;;;;;;5096769;27;45295;-76
2023/07/22 12:40:20;;;;;;;;;5.67;5.67;;;;;;;;5096979;27;45557;-76
2023/07/22 12:42:46;;;;;;;;;5.00;4.00;;;;;;;;5096891;27;45499;-76
2023/07/22 12:45:13;;;;;;;;;4.00;4.00;;;;;;;;5096719;27;45889;-76
2023/07/22 12:47:38;;;;;;;;;5.33;5.33;;;;;;;;5096764;27;45500;-76
2023/07/22 12:50:04;;;;;;;;;6.00;5.00;;;;;;;;5097698;27;45558;-76
2023/07/22 12:52:29;;;;;;;;;5.00;5.00;;;;;;;;5097042;27;45422;-77
2023/07/22 12:54:55;;;;;;;;;5.67;5.67;;;;;;;;5098312;27;45407;-77
2023/07/22 12:57:21;;;;;;;;;6.33;6.00;;;;;;;;5100046;27;45536;-75
2023/07/22 12:59:46;;;;;;;;;5.00;5.00;;;;;;;;5101201;27;45654;-76
2023/07/22 13:02:12;;;;;;;;;5.00;5.00;;;;;;;;5100013;27;45453;-76
2023/07/22 13:04:37;;;;;;;;;4.00;4.00;;;;;;;;5081300;27;47015;-76
2023/07/22 13:07:03;;;;;;;;;3.00;3.00;;;;;;;;5100092;27;45410;-76
2023/07/22 13:09:28;;;;;;;;;6.67;6.67;;;;;;;;5099857;27;45252;-76
2023/07/22 13:11:54;;;;;;;;;5.00;4.33;;;;;;;;5100054;27;45507;-77
2023/07/22 13:14:19;;;;;;;;;4.33;4.33;;;;;;;;5099710;27;45574;-77
2023/07/22 13:16:45;;;;;;;;;5.33;5.33;;;;;;;;5099975;27;45314;-76
2023/07/22 13:19:10;;;;;;;;;5.33;5.33;;;;;;;;5099694;27;45419;-77
2023/07/22 13:21:35;;;;;;;;;7.33;6.33;;;;;;;;5100449;27;45317;-76
2023/07/22 13:24:01;;;;;;;;;5.67;5.67;;;;;;;;5099739;27;45253;-77
2023/07/22 13:26:26;;;;;;;;;6.00;6.00;;;;;;;;5099701;27;45479;-77
2023/07/22 13:28:52;;;;;;;;;7.00;6.67;;;;;;;;5099697;27;45464;-76
2023/07/22 13:31:17;;;;;;;;;5.00;5.00;;;;;;;;5099587;27;45174;-76
2023/07/22 13:33:42;;;;;;;;;5.33;5.00;;;;;;;;5099367;27;46115;-76
2023/07/22 13:36:09;;;;;;;;;6.00;6.00;;;;;;;;5099576;27;45401;-77
2023/07/22 13:38:34;;;;;;;;;6.00;6.00;;;;;;;;5099324;27;45521;-76
2023/07/22 13:40:59;;;;;;;;;6.67;6.00;;;;;;;;5099636;27;45307;-77
2023/07/22 13:43:27;;;;;;;;;5.00;5.00;;;;;;;;5099657;27;46127;-77
2023/07/22 13:45:52;;;;;;;;;5.00;5.00;;;;;;;;5099490;27;45401;-76
2023/07/22 13:48:17;;;;;;;;;7.00;7.00;;;;;;;;5099448;27;45509;-77
2023/07/22 13:50:43;;;;;;;;;6.67;6.00;;;;;;;;5099664;27;45502;-77
2023/07/22 13:53:08;;;;;;;;;14.67;14.33;;;;;;;;5099574;27;46382;-76
2023/07/22 13:55:33;;;;;;;;;5.33;5.33;;;;;;;;5098953;27;45416;-76
2023/07/22 13:57:59;;;;;;;;;5.00;5.00;;;;;;;;5098952;27;45250;-76
2023/07/22 14:00:25;;;;;;;;;5.00;5.00;;;;;;;;5099366;27;45308;-76
2023/07/22 14:02:51;;;;;;;;;5.00;5.00;;;;;;;;5099229;27;46131;-77
2023/07/22 14:05:16;;;;;;;;;5.67;5.33;;;;;;;;5098661;27;45286;-77
2023/07/22 14:07:41;;;;;;;;;5.00;5.00;;;;;;;;5098926;27;45398;-77
2023/07/22 14:10:08;;;;;;;;;6.33;6.33;;;;;;;;5099239;27;45435;-77
2023/07/22 14:12:34;;;;;;;;;6.33;6.00;;;;;;;;5098816;27;46111;-76
2023/07/22 14:14:59;;;;;;;;;6.33;6.33;;;;;;;;5098715;27;45202;-76
2023/07/22 14:17:25;;;;;;;;;8.00;6.00;;;;;;;;5080817;27;45800;-76
2023/07/22 14:19:50;;;;;;;;;8.00;8.00;;;;;;;;5099220;27;45405;-77
2023/07/22 14:22:16;;;;;;;;;5.33;5.33;;;;;;;;5098513;27;46041;-77
2023/07/22 14:24:41;;;;;;;;;6.00;5.00;;;;;;;;5080487;27;45519;-77
2023/07/22 14:27:07;;;;;;;;;7.00;7.00;;;;;;;;5099036;27;45300;-77
2023/07/22 14:29:32;;;;;;;;;6.33;6.33;;;;;;;;5099186;27;45352;-77
2023/07/22 14:31:58;;;;;;;;;7.00;6.00;;;;;;;;5098720;27;45429;-77
2023/07/22 14:34:23;;;;;;;;;6.00;6.00;;;;;;;;5098731;27;45402;-76
2023/07/22 14:36:48;;;;;;;;;6.00;6.00;;;;;;;;5097496;27;45497;-76